Time;durP1;ratioP1;P1;durP2;ratioP2;P2;SDS_P1;SDS_P2;PMS_P1;PMS_P2;Temp;Humidity;BMP_temperature;BMP_pressure;BME280_temperature;BME280_humidity;BME280_pressure;Samples;Min_cycle;Max_cycle;Signal;HPM_P1;HPM_P2
2021/08/28 00:02:23;;;;;;;13.02;9.05;;;14.80;99.90;;;;;;5007141;28;20136;-48
2021/08/28 00:04:50;;;;;;;14.20;10.43;;;14.70;99.90;;;;;;4994669;28;20058;-47
2021/08/28 00:07:16;;;;;;;11.68;9.23;;;14.70;99.90;;;;;;4979798;28;20043;-47
2021/08/28 00:09:42;;;;;;;10.23;9.13;;;15.00;99.90;;;;;;5000982;28;20471;-48
2021/08/28 00:12:08;;;;;;;12.07;9.35;;;15.20;99.90;;;;;;5010992;28;20030;-50
2021/08/28 00:14:33;;;;;;;10.00;8.27;;;15.40;99.90;;;;;;5010835;28;20467;-49
2021/08/28 00:16:59;;;;;;;12.40;8.15;;;15.50;99.90;;;;;;4994255;28;20057;-49
2021/08/28 00:19:25;;;;;;;9.38;8.45;;;15.60;99.90;;;;;;4993753;28;20037;-51
2021/08/28 00:21:51;;;;;;;11.45;9.52;;;15.70;99.90;;;;;;5010379;28;20026;-50
2021/08/28 00:24:17;;;;;;;11.48;9.18;;;15.80;99.90;;;;;;5010890;28;20378;-52
2021/08/28 00:26:42;;;;;;;9.48;8.43;;;15.70;99.90;;;;;;5009645;28;20025;-51
2021/08/28 00:29:08;;;;;;;11.13;8.68;;;15.70;99.90;;;;;;4977022;28;20389;-50
2021/08/28 00:31:34;;;;;;;13.55;9.20;;;15.80;99.90;;;;;;5047910;28;20397;-51
2021/08/28 00:34:00;;;;;;;11.80;8.48;;;15.80;99.90;;;;;;5051939;28;20021;-53
2021/08/28 00:36:26;;;;;;;9.82;8.73;;;15.80;99.90;;;;;;5033361;28;20037;-49
2021/08/28 00:38:51;;;;;;;13.10;9.48;;;15.80;99.90;;;;;;5054490;28;20024;-50
2021/08/28 00:41:17;;;;;;;11.02;9.57;;;15.80;99.90;;;;;;5055945;28;20461;-52
2021/08/28 00:43:43;;;;;;;11.85;9.85;;;15.80;99.90;;;;;;5037221;28;20075;-52
2021/08/28 00:46:09;;;;;;;14.68;8.82;;;15.90;99.90;;;;;;5055069;28;20017;-52
2021/08/28 00:48:35;;;;;;;10.38;9.10;;;15.90;99.90;;;;;;5055380;28;20029;-48
2021/08/28 00:51:01;;;;;;;10.73;9.27;;;15.90;99.90;;;;;;5055720;28;20039;-50
2021/08/28 00:53:26;;;;;;;9.25;7.80;;;16.10;99.90;;;;;;5020424;28;20041;-52
2021/08/28 00:55:53;;;;;;;13.65;8.25;;;16.10;99.90;;;;;;5037141;28;20111;-47
2021/08/28 00:58:22;;;;;;;10.85;9.00;;;16.10;99.90;;;;;;5017378;28;20048;-47
2021/08/28 01:01:01;;;;;;;13.38;9.15;;;16.10;99.90;;;;;;5036122;28;20033;-47
2021/08/28 01:03:30;;;;;;;12.50;9.90;;;16.00;99.90;;;;;;5035061;28;20041;-48
2021/08/28 01:06:02;;;;;;;12.32;9.98;;;16.00;99.90;;;;;;5002701;28;20049;-50
2021/08/28 01:08:35;;;;;;;10.63;9.52;;;15.80;99.90;;;;;;5035949;28;20036;-48
2021/08/28 01:11:19;;;;;;;10.13;8.57;;;15.60;99.90;;;;;;5034224;28;20037;-49
2021/08/28 01:13:49;;;;;;;14.82;8.95;;;15.60;99.90;;;;;;5035819;28;20037;-51
2021/08/28 01:16:16;;;;;;;13.57;8.43;;;15.50;99.90;;;;;;5035830;28;20048;-50
2021/08/28 01:18:45;;;;;;;16.08;9.32;;;15.40;99.90;;;;;;5035737;28;20497;-47
2021/08/28 01:21:34;;;;;;;15.15;10.10;;;15.30;99.90;;;;;;5035781;28;20037;-48
2021/08/28 01:24:03;;;;;;;18.45;9.23;;;15.30;99.90;;;;;;4994176;28;20038;-48
2021/08/28 01:26:44;;;;;;;13.13;9.18;;;15.10;99.90;;;;;;4992154;28;20074;-47
2021/08/28 01:29:18;;;;;;;11.25;9.23;;;15.20;99.90;;;;;;4992030;28;20034;-48
2021/08/28 01:31:47;;;;;;;15.35;9.88;;;15.20;99.90;;;;;;4993392;28;20041;-48
2021/08/28 01:34:13;;;;;;;13.27;9.63;;;15.30;99.90;;;;;;4993180;28;20589;-50
2021/08/28 01:36:39;;;;;;;11.57;9.27;;;15.40;99.90;;;;;;4993160;28;20081;-48
2021/08/28 01:39:06;;;;;;;13.63;10.07;;;15.50;99.90;;;;;;4992583;28;20121;-50
2021/08/28 01:41:32;;;;;;;12.93;9.98;;;15.50;99.90;;;;;;4993041;28;20041;-51
2021/08/28 01:44:00;;;;;;;11.73;8.63;;;15.60;99.90;;;;;;4929282;28;20042;-50
2021/08/28 01:46:25;;;;;;;11.98;10.18;;;15.60;99.90;;;;;;4993970;28;20038;-50
2021/08/28 01:48:51;;;;;;;12.98;9.90;;;15.60;99.90;;;;;;4977140;28;20030;-48
2021/08/28 01:51:17;;;;;;;12.65;8.82;;;15.60;99.90;;;;;;4993538;28;20465;-51
2021/08/28 01:53:43;;;;;;;13.70;10.00;;;15.80;99.90;;;;;;4961267;28;20573;-50
2021/08/28 01:56:12;;;;;;;12.65;10.50;;;15.80;99.90;;;;;;4945026;28;20031;-48
2021/08/28 01:58:39;;;;;;;14.73;10.35;;;15.80;99.90;;;;;;4961429;28;20039;-51
2021/08/28 02:01:05;;;;;;;25.25;13.80;;;16.00;99.90;;;;;;5026993;28;20033;-50
2021/08/28 02:03:30;;;;;;;46.15;19.52;;;15.70;99.90;;;;;;5054646;28;20485;-48
2021/08/28 02:06:03;;;;;;;20.52;12.88;;;15.40;99.90;;;;;;5054675;28;20041;-51
2021/08/28 02:08:37;;;;;;;19.20;11.38;;;15.40;99.90;;;;;;5054581;28;20120;-47
2021/08/28 02:11:21;;;;;;;12.73;9.65;;;15.50;99.90;;;;;;5054704;28;20116;-51
2021/08/28 02:13:58;;;;;;;17.38;11.38;;;15.50;99.90;;;;;;5052616;28;20033;-50
2021/08/28 02:16:29;;;;;;;16.75;11.43;;;15.50;99.90;;;;;;5011673;28;20052;-52
2021/08/28 02:19:25;;;;;;;14.75;10.50;;;15.70;99.90;;;;;;5011881;28;20041;-52
2021/08/28 02:21:55;;;;;;;14.55;10.10;;;15.70;99.90;;;;;;5011533;28;20452;-47
2021/08/28 02:24:26;;;;;;;13.32;9.98;;;15.90;99.90;;;;;;5012689;28;20489;-49
2021/08/28 02:27:04;;;;;;;14.95;10.18;;;16.00;99.90;;;;;;5010899;28;20425;-49
2021/08/28 02:29:37;;;;;;;13.68;9.80;;;16.00;99.90;;;;;;5012274;28;20405;-52
2021/08/28 02:32:05;;;;;;;22.77;11.00;;;16.10;99.90;;;;;;4979806;28;20034;-49
2021/08/28 02:34:34;;;;;;;14.75;10.02;;;16.10;99.90;;;;;;5012854;28;20108;-49
2021/08/28 02:37:02;;;;;;;17.63;9.85;;;16.00;99.90;;;;;;5012472;28;20045;-50
2021/08/28 02:39:28;;;;;;;13.93;10.30;;;16.00;99.90;;;;;;4980077;28;20038;-51
2021/08/28 02:41:56;;;;;;;14.27;9.60;;;16.10;99.90;;;;;;4963727;28;20038;-46
2021/08/28 02:44:23;;;;;;;14.60;10.38;;;16.10;99.90;;;;;;5012356;28;20030;-50
2021/08/28 02:46:51;;;;;;;15.07;10.43;;;16.10;99.90;;;;;;5025080;28;20033;-49
2021/08/28 02:49:18;;;;;;;11.13;9.70;;;16.10;99.90;;;;;;5053867;28;20121;-50
2021/08/28 02:51:45;;;;;;;13.80;9.52;;;15.90;99.90;;;;;;5052054;28;20123;-51
2021/08/28 02:54:12;;;;;;;12.95;9.07;;;15.90;99.90;;;;;;5053770;28;20028;-51
2021/08/28 02:56:39;;;;;;;11.75;9.45;;;16.00;99.90;;;;;;5053767;28;20562;-48
2021/08/28 02:59:05;;;;;;;16.73;9.23;;;16.10;99.90;;;;;;5053847;28;20069;-49
2021/08/28 03:01:32;;;;;;;11.02;9.13;;;16.10;99.90;;;;;;5053450;28;20048;-49
2021/08/28 03:03:59;;;;;;;14.52;10.57;;;16.20;99.90;;;;;;5053599;28;20052;-47
2021/08/28 03:06:28;;;;;;;15.38;10.05;;;16.20;99.90;;;;;;5053814;28;20043;-49
2021/08/28 03:08:55;;;;;;;11.15;9.75;;;16.00;99.90;;;;;;5053536;28;20025;-51
2021/08/28 03:11:22;;;;;;;13.93;10.88;;;15.50;99.90;;;;;;5053551;28;20021;-49
2021/08/28 03:13:48;;;;;;;13.55;11.27;;;15.50;99.90;;;;;;5035362;28;20049;-49
2021/08/28 03:16:15;;;;;;;14.00;10.85;;;15.40;99.90;;;;;;5053496;28;20495;-48
2021/08/28 03:18:43;;;;;;;15.10;10.75;;;15.40;99.90;;;;;;5049925;28;20033;-48
2021/08/28 03:21:11;;;;;;;15.55;11.50;;;15.60;99.90;;;;;;5033879;28;20037;-50
2021/08/28 03:23:39;;;;;;;17.67;10.98;;;15.60;99.90;;;;;;5053156;28;20086;-51
2021/08/28 03:26:08;;;;;;;15.95;10.90;;;15.70;99.90;;;;;;5052339;28;20029;-49
2021/08/28 03:28:35;;;;;;;15.65;10.85;;;15.50;99.90;;;;;;5053755;28;20025;-49
2021/08/28 03:31:02;;;;;;;17.38;10.60;;;15.50;99.90;;;;;;5053347;28;20093;-47
2021/08/28 03:33:29;;;;;;;16.50;9.95;;;15.30;99.90;;;;;;5031501;28;20394;-51
2021/08/28 03:35:56;;;;;;;13.73;9.90;;;15.50;99.90;;;;;;5031357;28;20033;-49
2021/08/28 03:38:22;;;;;;;15.38;10.43;;;15.50;99.90;;;;;;5031165;28;20049;-52
2021/08/28 03:40:48;;;;;;;15.10;10.65;;;15.40;99.90;;;;;;5031302;28;20029;-49
2021/08/28 03:43:14;;;;;;;14.80;10.27;;;15.50;99.90;;;;;;5031224;28;20087;-49
2021/08/28 03:45:40;;;;;;;17.27;10.80;;;15.60;99.90;;;;;;5031215;28;20021;-47
2021/08/28 03:48:07;;;;;;;19.20;10.50;;;15.80;99.90;;;;;;4980361;28;20034;-50
2021/08/28 03:50:33;;;;;;;21.20;12.50;;;15.90;99.90;;;;;;5030164;28;20030;-48
2021/08/28 03:52:59;;;;;;;23.08;11.95;;;16.00;99.90;;;;;;5030662;28;20037;-50
2021/08/28 03:55:25;;;;;;;23.70;13.23;;;15.90;99.90;;;;;;5030036;28;20041;-49
2021/08/28 03:57:50;;;;;;;27.05;13.43;;;15.80;99.90;;;;;;5014079;28;20053;-48
2021/08/28 04:00:16;;;;;;;37.92;15.32;;;15.80;99.90;;;;;;5028192;28;20042;-50
2021/08/28 04:02:42;;;;;;;27.80;14.75;;;16.00;99.90;;;;;;4992008;28;20617;-51
2021/08/28 04:05:08;;;;;;;47.30;15.20;;;16.10;99.90;;;;;;4975022;28;20527;-49
2021/08/28 04:07:38;;;;;;;59.78;16.48;;;16.20;99.90;;;;;;5046425;28;20032;-47
2021/08/28 04:10:05;;;;;;;50.88;17.75;;;16.10;99.90;;;;;;5040948;28;20025;-49
2021/08/28 04:12:31;;;;;;;56.67;16.95;;;16.10;99.90;;;;;;4993605;28;20129;-49
2021/08/28 04:14:57;;;;;;;29.20;16.30;;;16.00;99.90;;;;;;5014156;28;20132;-48
2021/08/28 04:17:24;;;;;;;40.40;17.65;;;16.10;99.90;;;;;;5006549;28;20045;-47
2021/08/28 04:19:50;;;;;;;32.78;15.52;;;16.10;99.90;;;;;;4988204;28;20149;-49
2021/08/28 04:22:16;;;;;;;33.63;16.05;;;16.10;99.90;;;;;;4949229;28;20398;-50
2021/08/28 04:24:41;;;;;;;67.13;17.75;;;16.20;99.90;;;;;;4981815;28;20049;-50
2021/08/28 04:27:07;;;;;;;28.90;17.08;;;16.30;99.90;;;;;;5013811;28;20581;-48
2021/08/28 04:29:33;;;;;;;52.30;16.23;;;16.40;99.90;;;;;;5014120;28;20042;-47
2021/08/28 04:31:59;;;;;;;87.85;16.52;;;16.40;99.90;;;;;;5014678;28;20124;-47
2021/08/28 04:34:25;;;;;;;89.60;16.27;;;16.40;99.90;;;;;;5014662;28;20036;-48
2021/08/28 04:36:50;;;;;;;85.80;14.93;;;16.20;99.90;;;;;;5014653;28;20053;-48
2021/08/28 04:39:16;;;;;;;100.40;16.15;;;15.90;99.90;;;;;;5014851;28;20572;-50
2021/08/28 04:41:42;;;;;;;64.93;16.17;;;15.60;99.90;;;;;;4982494;28;20038;-49
2021/08/28 04:44:08;;;;;;;88.55;17.73;;;15.50;99.90;;;;;;5017039;28;20064;-50
2021/08/28 04:46:34;;;;;;;96.60;18.98;;;15.50;99.90;;;;;;5037839;28;20064;-47
2021/08/28 04:48:59;;;;;;;84.40;17.45;;;15.40;99.90;;;;;;5037763;28;20041;-47
2021/08/28 04:51:25;;;;;;;49.70;16.15;;;15.40;99.90;;;;;;5056116;28;20028;-50
2021/08/28 04:53:51;;;;;;;35.47;14.85;;;15.30;99.90;;;;;;5056073;28;20135;-50
2021/08/28 04:56:16;;;;;;;27.88;13.27;;;15.50;99.90;;;;;;5054785;28;20036;-49
2021/08/28 04:58:44;;;;;;;28.48;12.13;;;15.40;99.90;;;;;;5054271;28;20029;-49
2021/08/28 05:01:10;;;;;;;25.20;12.57;;;15.30;99.90;;;;;;5054853;28;20033;-47
2021/08/28 05:03:35;;;;;;;22.15;13.05;;;15.20;99.90;;;;;;4983629;28;20038;-50
2021/08/28 05:06:02;;;;;;;29.15;12.65;;;15.30;99.90;;;;;;5051038;28;20508;-50
2021/08/28 05:08:28;;;;;;;35.50;13.18;;;15.20;99.90;;;;;;5045845;28;20045;-48
2021/08/28 05:10:54;;;;;;;24.90;11.68;;;15.30;99.90;;;;;;5055190;28;20036;-48
2021/08/28 05:13:20;;;;;;;28.33;11.57;;;15.30;99.90;;;;;;5054881;28;20392;-50
2021/08/28 05:15:45;;;;;;;21.05;12.38;;;15.20;99.90;;;;;;5055371;28;20029;-49
2021/08/28 05:18:11;;;;;;;34.90;11.30;;;15.20;99.90;;;;;;5036322;28;20524;-50
2021/08/28 05:20:37;;;;;;;27.50;12.80;;;15.10;99.90;;;;;;5054375;28;20127;-51
2021/08/28 05:23:03;;;;;;;26.85;12.43;;;15.00;99.90;;;;;;5054358;28;20075;-48
2021/08/28 05:25:28;;;;;;;25.73;11.40;;;15.00;99.90;;;;;;5019405;28;20091;-49
2021/08/28 05:27:54;;;;;;;37.13;12.30;;;14.90;99.90;;;;;;5055121;28;20117;-48
2021/08/28 05:30:20;;;;;;;22.48;13.10;;;14.80;99.90;;;;;;5054518;28;20021;-49
2021/08/28 05:32:46;;;;;;;19.77;12.25;;;15.00;99.90;;;;;;5054916;28;20037;-47
2021/08/28 05:35:12;;;;;;;21.35;11.02;;;15.00;99.90;;;;;;5054789;28;20055;-50
2021/08/28 05:37:38;;;;;;;14.25;11.07;;;14.90;99.90;;;;;;5052186;28;20052;-49
2021/08/28 05:40:06;;;;;;;15.02;11.88;;;14.90;99.90;;;;;;5035356;28;20037;-47
2021/08/28 05:42:33;;;;;;;13.88;10.25;;;15.00;99.90;;;;;;5054716;28;20523;-48
2021/08/28 05:44:59;;;;;;;13.48;9.38;;;15.00;99.90;;;;;;5052685;28;20401;-49
2021/08/28 05:47:25;;;;;;;10.77;9.07;;;15.20;99.90;;;;;;5036416;28;20033;-48
2021/08/28 05:49:51;;;;;;;11.77;9.82;;;15.20;99.90;;;;;;5054311;28;20044;-50
2021/08/28 05:52:17;;;;;;;10.10;8.70;;;15.30;99.90;;;;;;5054355;28;20052;-49
2021/08/28 05:54:42;;;;;;;8.63;7.65;;;15.30;99.90;;;;;;5036179;28;20041;-50
2021/08/28 05:57:08;;;;;;;8.48;7.35;;;15.30;99.90;;;;;;5034757;28;20071;-46
2021/08/28 05:59:34;;;;;;;9.48;8.32;;;15.00;99.90;;;;;;5029412;28;20037;-49
2021/08/28 06:02:00;;;;;;;9.52;7.78;;;15.20;99.90;;;;;;5045922;28;20444;-50
2021/08/28 06:04:25;;;;;;;9.30;8.27;;;15.10;99.90;;;;;;5027338;28;20436;-50
2021/08/28 06:06:51;;;;;;;9.88;8.38;;;15.20;99.90;;;;;;5047441;28;20032;-50
2021/08/28 06:09:17;;;;;;;13.55;8.80;;;15.20;99.90;;;;;;5046056;28;20024;-51
2021/08/28 06:11:42;;;;;;;12.55;8.15;;;15.10;99.90;;;;;;5035816;28;20047;-48
2021/08/28 06:14:08;;;;;;;9.05;7.50;;;15.10;99.90;;;;;;5046965;28;20540;-48
2021/08/28 06:16:34;;;;;;;11.18;9.23;;;15.00;99.90;;;;;;5050317;28;20033;-49
2021/08/28 06:19:00;;;;;;;11.50;7.40;;;15.30;99.90;;;;;;5054263;28;20476;-47
2021/08/28 06:21:26;;;;;;;8.73;7.60;;;15.30;99.90;;;;;;5053211;28;20465;-47
2021/08/28 06:23:52;;;;;;;10.35;8.55;;;15.20;99.90;;;;;;5053828;28;20033;-47
2021/08/28 06:26:18;;;;;;;9.90;8.23;;;15.10;99.90;;;;;;5001964;28;20500;-47
2021/08/28 06:28:44;;;;;;;10.10;8.77;;;15.20;99.90;;;;;;5053620;28;20033;-48
2021/08/28 06:31:10;;;;;;;11.13;9.20;;;15.40;99.90;;;;;;5053804;28;20483;-52
2021/08/28 06:33:36;;;;;;;15.20;10.32;;;15.40;99.90;;;;;;5053863;28;20401;-52
2021/08/28 06:36:03;;;;;;;12.90;9.07;;;15.50;99.90;;;;;;5053208;28;20032;-48
2021/08/28 06:38:31;;;;;;;11.35;8.65;;;15.60;99.90;;;;;;4985760;28;20045;-51
2021/08/28 06:40:58;;;;;;;9.60;7.88;;;16.00;99.90;;;;;;5052766;28;20069;-48
2021/08/28 06:43:25;;;;;;;8.82;6.88;;;16.10;99.90;;;;;;5054155;28;20029;-53
2021/08/28 06:45:51;;;;;;;6.97;6.25;;;16.00;99.90;;;;;;5054268;28;20025;-51
2021/08/28 06:48:17;;;;;;;8.00;7.20;;;16.10;99.90;;;;;;5053943;28;20498;-51
2021/08/28 06:50:43;;;;;;;6.38;5.75;;;16.20;99.90;;;;;;5043701;28;20126;-51
2021/08/28 06:53:09;;;;;;;7.05;6.35;;;16.20;99.90;;;;;;4991765;28;20059;-51
2021/08/28 06:55:35;;;;;;;6.95;6.22;;;16.40;99.90;;;;;;5042644;28;20469;-49
2021/08/28 06:58:00;;;;;;;6.28;5.47;;;16.50;99.90;;;;;;5023524;28;20041;-51
2021/08/28 07:00:26;;;;;;;7.15;6.45;;;16.80;99.90;;;;;;5034110;28;20040;-53
2021/08/28 07:02:52;;;;;;;7.15;6.15;;;16.80;99.90;;;;;;5033959;28;20029;-52
2021/08/28 07:05:18;;;;;;;7.45;6.75;;;16.90;99.90;;;;;;5015724;28;20049;-49
2021/08/28 07:07:44;;;;;;;6.85;6.15;;;16.80;99.90;;;;;;5015615;28;20091;-49
2021/08/28 07:10:10;;;;;;;7.82;6.50;;;17.00;99.90;;;;;;5016197;28;20034;-50
2021/08/28 07:12:36;;;;;;;7.35;6.60;;;17.30;99.90;;;;;;5001568;28;20485;-51
2021/08/28 07:15:03;;;;;;;7.55;6.10;;;17.50;99.90;;;;;;5018113;28;20029;-49
2021/08/28 07:17:28;;;;;;;21.55;19.55;;;17.40;99.90;;;;;;5033329;28;20507;-48
2021/08/28 07:19:54;;;;;;;191.52;145.85;;;17.60;99.90;;;;;;5050540;28;20056;-48
2021/08/28 07:22:20;;;;;;;9.77;8.82;;;17.40;99.90;;;;;;5034290;28;20043;-52
2021/08/28 07:24:46;;;;;;;6.70;6.00;;;17.60;99.90;;;;;;5052724;28;20028;-52
2021/08/28 07:27:12;;;;;;;6.88;6.10;;;17.70;99.90;;;;;;5053019;28;20025;-52
2021/08/28 07:29:38;;;;;;;8.20;6.57;;;17.90;99.90;;;;;;5053094;28;20040;-51
2021/08/28 07:32:04;;;;;;;8.70;6.47;;;18.00;99.90;;;;;;5043608;28;20022;-51
2021/08/28 07:34:35;;;;;;;8.90;7.45;;;18.20;99.90;;;;;;5022205;28;20041;-49
2021/08/28 07:37:02;;;;;;;18.40;12.32;;;18.30;99.90;;;;;;5009706;28;20171;-49
2021/08/28 07:39:28;;;;;;;12.23;9.95;;;18.30;99.90;;;;;;5017906;28;20116;-50
2021/08/28 07:41:53;;;;;;;7.35;6.65;;;18.30;99.90;;;;;;5052565;28;20476;-50
2021/08/28 07:44:19;;;;;;;6.43;5.82;;;18.30;99.90;;;;;;5052931;28;20469;-51
2021/08/28 07:46:45;;;;;;;7.82;6.53;;;18.30;99.90;;;;;;5051787;28;20083;-48
2021/08/28 07:49:11;;;;;;;9.25;7.30;;;18.40;99.90;;;;;;5036964;28;20124;-49
2021/08/28 07:51:37;;;;;;;8.50;6.57;;;18.20;99.90;;;;;;5056742;28;20029;-50
2021/08/28 07:54:02;;;;;;;8.57;7.13;;;18.20;99.90;;;;;;5056075;28;20481;-50
2021/08/28 07:56:28;;;;;;;6.72;6.07;;;18.10;99.90;;;;;;5038249;28;20079;-53
2021/08/28 07:58:54;;;;;;;7.15;6.00;;;18.10;99.90;;;;;;5056135;28;20032;-50
2021/08/28 08:01:19;;;;;;;7.05;6.45;;;18.30;99.90;;;;;;5052886;28;20457;-49
2021/08/28 08:03:45;;;;;;;7.78;6.13;;;18.30;99.90;;;;;;5056210;28;20037;-53
2021/08/28 08:06:11;;;;;;;7.65;6.35;;;18.30;99.90;;;;;;5056378;28;20033;-53
2021/08/28 08:08:37;;;;;;;6.47;5.88;;;18.40;99.90;;;;;;5056258;28;20086;-52
2021/08/28 08:11:02;;;;;;;7.07;5.90;;;18.30;99.90;;;;;;5056131;28;20028;-50
2021/08/28 08:13:28;;;;;;;6.70;6.07;;;18.40;99.90;;;;;;5056158;28;20465;-49
2021/08/28 08:15:54;;;;;;;8.80;5.80;;;18.40;99.90;;;;;;5056341;28;20492;-50
2021/08/28 08:18:20;;;;;;;12.50;6.70;;;18.50;99.90;;;;;;5055899;28;20033;-52
2021/08/28 08:20:45;;;;;;;6.95;6.25;;;18.20;99.90;;;;;;5056149;28;20086;-53
2021/08/28 08:23:11;;;;;;;8.25;6.43;;;18.30;99.90;;;;;;5038059;28;20056;-51
2021/08/28 08:25:37;;;;;;;7.72;6.55;;;18.30;99.90;;;;;;5037615;28;20296;-48
2021/08/28 08:28:03;;;;;;;7.07;6.38;;;18.10;99.90;;;;;;5049207;28;20032;-51
2021/08/28 08:30:29;;;;;;;7.70;6.75;;;17.90;99.90;;;;;;5023841;28;20467;-49
2021/08/28 08:32:57;;;;;;;10.63;8.43;;;17.90;99.90;;;;;;5049451;28;20358;-48
2021/08/28 08:35:23;;;;;;;7.47;6.65;;;18.10;99.90;;;;;;5048919;28;20021;-50
2021/08/28 08:37:49;;;;;;;8.68;7.72;;;18.00;99.90;;;;;;5050830;28;20051;-48
2021/08/28 08:40:15;;;;;;;9.07;8.18;;;17.90;99.90;;;;;;5053391;28;20064;-50
2021/08/28 08:42:42;;;;;;;9.57;7.88;;;17.90;99.90;;;;;;5049188;28;20030;-51
2021/08/28 08:45:08;;;;;;;10.35;9.35;;;17.90;99.90;;;;;;5030723;28;20033;-48
2021/08/28 08:47:36;;;;;;;11.65;9.90;;;17.80;99.90;;;;;;5027025;28;20065;-50
2021/08/28 08:50:04;;;;;;;11.40;10.23;;;18.00;99.90;;;;;;5046698;28;20029;-49
2021/08/28 08:52:31;;;;;;;14.50;11.75;;;18.00;99.90;;;;;;5045734;28;20433;-52
2021/08/28 08:54:58;;;;;;;14.70;12.45;;;18.10;99.90;;;;;;5044875;28;20057;-51
2021/08/28 08:57:25;;;;;;;16.75;14.10;;;18.10;99.90;;;;;;5026235;28;20045;-49
2021/08/28 08:59:50;;;;;;;16.92;14.07;;;18.00;99.90;;;;;;5045346;28;20021;-48
2021/08/28 09:02:16;;;;;;;13.75;11.23;;;18.20;99.90;;;;;;5038649;28;20052;-49
2021/08/28 09:04:42;;;;;;;12.13;10.43;;;18.30;99.90;;;;;;5035938;28;20049;-49
2021/08/28 09:07:12;;;;;;;9.05;6.68;;;18.40;99.90;;;;;;5039858;28;20396;-52
2021/08/28 09:09:39;;;;;;;8.93;6.57;;;18.10;99.90;;;;;;5046851;28;20033;-49
2021/08/28 09:12:09;;;;;;;9.18;7.03;;;18.00;99.90;;;;;;5055517;28;20128;-52
2021/08/28 09:14:35;;;;;;;8.82;7.47;;;18.00;99.90;;;;;;5021655;28;20568;-49
2021/08/28 09:17:18;;;;;;;7.70;6.25;;;18.00;99.90;;;;;;5055449;28;20131;-51
2021/08/28 09:19:44;;;;;;;11.07;6.78;;;18.30;99.90;;;;;;5020773;28;20099;-49
2021/08/28 09:22:28;;;;;;;8.18;6.78;;;18.40;99.90;;;;;;5054724;28;20037;-49
2021/08/28 09:25:01;;;;;;;9.32;7.50;;;18.40;99.90;;;;;;5055062;28;20033;-49
2021/08/28 09:27:41;;;;;;;9.30;7.53;;;18.30;99.90;;;;;;5054864;28;20041;-51
2021/08/28 09:30:14;;;;;;;9.52;7.65;;;18.30;99.90;;;;;;5049921;28;20068;-53
2021/08/28 09:32:46;;;;;;;10.23;8.25;;;18.20;99.90;;;;;;5054683;28;20040;-51
2021/08/28 09:35:12;;;;;;;10.75;7.75;;;18.20;99.90;;;;;;5055242;28;20103;-52
2021/08/28 09:37:37;;;;;;;8.10;7.20;;;18.30;99.90;;;;;;5032088;28;20489;-51
2021/08/28 09:40:05;;;;;;;8.35;7.30;;;18.20;99.90;;;;;;5033853;28;20041;-52
2021/08/28 09:42:31;;;;;;;10.65;7.80;;;18.20;99.90;;;;;;5017024;28;20388;-50
2021/08/28 09:44:57;;;;;;;10.50;8.27;;;18.10;99.90;;;;;;5017780;28;20037;-51
2021/08/28 09:47:29;;;;;;;9.93;7.68;;;18.20;99.90;;;;;;5035093;28;20135;-50
2021/08/28 09:49:55;;;;;;;8.82;7.82;;;18.20;99.90;;;;;;5053560;28;20033;-51
2021/08/28 09:52:23;;;;;;;7.97;7.18;;;18.20;99.90;;;;;;5053300;28;20032;-49
2021/08/28 09:54:49;;;;;;;9.43;8.43;;;18.10;99.90;;;;;;5042965;28;20025;-49
2021/08/28 09:57:16;;;;;;;9.20;8.27;;;17.90;99.90;;;;;;5033979;28;20025;-51
2021/08/28 09:59:45;;;;;;;9.98;8.63;;;17.90;99.90;;;;;;5034008;28;20057;-52
2021/08/28 10:02:15;;;;;;;10.32;9.20;;;18.00;99.90;;;;;;5048803;28;20025;-52
2021/08/28 10:04:49;;;;;;;11.82;9.38;;;18.00;99.90;;;;;;5044049;28;20493;-49
2021/08/28 10:07:19;;;;;;;10.80;9.63;;;18.10;99.90;;;;;;5023989;28;20120;-51
2021/08/28 10:09:46;;;;;;;12.15;9.98;;;18.20;99.90;;;;;;5041924;28;20028;-52
2021/08/28 10:12:16;;;;;;;10.82;9.73;;;18.30;99.90;;;;;;5039569;28;20064;-51
2021/08/28 10:14:42;;;;;;;10.55;9.52;;;18.40;99.90;;;;;;5025633;28;20053;-51
2021/08/28 10:17:09;;;;;;;10.98;8.98;;;18.50;99.90;;;;;;5046052;28;20033;-50
2021/08/28 10:19:36;;;;;;;9.82;8.15;;;18.50;99.90;;;;;;5033378;28;20055;-52
2021/08/28 10:22:03;;;;;;;10.35;9.23;;;18.70;99.90;;;;;;5014387;28;20430;-51
2021/08/28 10:24:29;;;;;;;12.77;8.65;;;19.00;99.90;;;;;;5033394;28;20041;-49
2021/08/28 10:26:55;;;;;;;10.60;8.80;;;19.00;99.90;;;;;;5033540;28;20036;-51
2021/08/28 10:29:22;;;;;;;8.60;6.93;;;19.20;99.90;;;;;;5014817;28;20033;-49
2021/08/28 10:31:50;;;;;;;7.85;6.78;;;19.20;99.90;;;;;;5014641;28;20044;-50
2021/08/28 10:34:16;;;;;;;8.43;7.38;;;19.50;99.90;;;;;;5049169;28;20039;-48
2021/08/28 10:36:43;;;;;;;9.45;7.88;;;19.40;99.90;;;;;;5033533;28;20091;-52
2021/08/28 10:39:09;;;;;;;7.20;6.40;;;19.50;99.90;;;;;;5047689;28;20032;-48
2021/08/28 10:41:37;;;;;;;9.48;6.88;;;19.70;99.90;;;;;;5051581;28;20029;-47
2021/08/28 10:44:03;;;;;;;9.25;7.05;;;19.60;99.90;;;;;;5053149;28;20079;-49
2021/08/28 10:46:31;;;;;;;8.18;7.00;;;19.50;99.90;;;;;;5008724;28;20163;-51
2021/08/28 10:48:58;;;;;;;8.57;7.40;;;19.50;99.90;;;;;;5014379;28;20497;-50
2021/08/28 10:51:32;;;;;;;9.40;6.90;;;19.60;99.90;;;;;;5047418;28;20078;-50
2021/08/28 10:54:07;;;;;;;12.13;8.85;;;19.70;99.90;;;;;;5052865;28;20057;-49
2021/08/28 10:56:51;;;;;;;11.30;8.52;;;19.50;99.90;;;;;;5044043;28;20099;-50
2021/08/28 10:59:30;;;;;;;11.63;9.05;;;19.50;99.90;;;;;;5033450;28;20029;-51
2021/08/28 11:02:06;;;;;;;8.90;7.60;;;19.50;99.90;;;;;;5021720;28;20366;-51
2021/08/28 11:04:37;;;;;;;10.85;8.15;;;19.10;99.90;;;;;;5043962;28;20059;-50
2021/08/28 11:07:39;;;;;;;9.10;7.90;;;19.30;99.90;;;;;;5045615;28;20060;-48
2021/08/28 11:10:22;;;;;;;12.00;8.60;;;19.20;99.90;;;;;;5032525;28;20052;-51
2021/08/28 11:12:49;;;;;;;;;;;19.00;99.90;;;;;;5007574;28;20045;-48
2021/08/28 11:15:24;;;;;;;11.02;8.98;;;18.90;99.90;;;;;;5051390;28;19908;-52
2021/08/28 11:18:03;;;;;;;8.88;7.97;;;18.80;99.90;;;;;;5051314;28;20477;-51
2021/08/28 11:20:34;;;;;;;9.02;7.95;;;18.70;99.90;;;;;;5051993;28;20032;-51
2021/08/28 11:23:02;;;;;;;11.90;8.82;;;18.80;99.90;;;;;;5050269;28;20033;-51
2021/08/28 11:25:30;;;;;;;9.88;8.20;;;18.70;99.90;;;;;;5051553;28;20562;-49
2021/08/28 11:27:57;;;;;;;10.07;8.65;;;18.50;99.90;;;;;;5017143;28;20060;-47
2021/08/28 11:30:45;;;;;;;10.23;9.10;;;18.50;99.90;;;;;;5052268;28;20032;-47
2021/08/28 11:33:20;;;;;;;11.63;9.98;;;18.40;99.90;;;;;;5052293;28;20067;-51
2021/08/28 11:35:50;;;;;;;13.88;9.43;;;18.50;99.90;;;;;;5052233;28;20025;-48
2021/08/28 11:38:25;;;;;;;11.18;9.38;;;18.40;99.90;;;;;;5051921;28;20431;-52
2021/08/28 11:40:59;;;;;;;12.57;10.20;;;18.30;99.90;;;;;;5052257;28;20441;-48
2021/08/28 11:43:35;;;;;;;15.98;9.52;;;18.20;99.90;;;;;;5052126;28;20033;-48
2021/08/28 11:46:09;;;;;;;11.98;10.05;;;18.10;99.90;;;;;;5052195;28;20109;-48
2021/08/28 11:48:38;;;;;;;13.13;11.32;;;18.10;99.90;;;;;;5052067;28;20071;-48
2021/08/28 11:51:10;;;;;;;12.20;10.95;;;18.10;99.90;;;;;;5016837;28;20033;-52
2021/08/28 11:53:38;;;;;;;13.50;10.60;;;18.30;99.90;;;;;;5052132;28;20028;-49
2021/08/28 11:56:18;;;;;;;12.68;9.68;;;18.50;99.90;;;;;;5040929;28;20041;-51
2021/08/28 11:58:51;;;;;;;11.75;10.50;;;18.60;99.90;;;;;;5051445;28;20481;-51
2021/08/28 12:01:29;;;;;;;12.23;10.27;;;18.70;99.90;;;;;;5044254;28;20027;-50
2021/08/28 12:03:57;;;;;;;13.18;10.90;;;18.70;99.90;;;;;;5045537;28;20488;-52
2021/08/28 12:06:24;;;;;;;12.63;10.60;;;18.80;99.90;;;;;;5045514;28;20366;-51
2021/08/28 12:08:50;;;;;;;12.77;10.20;;;18.80;99.90;;;;;;5036479;28;20036;-49
2021/08/28 12:11:16;;;;;;;11.05;9.90;;;18.90;99.90;;;;;;5041975;28;20036;-50
2021/08/28 12:13:50;;;;;;;15.52;13.93;;;19.20;99.90;;;;;;5045937;28;20520;-49
2021/08/28 12:16:20;;;;;;;12.20;10.27;;;19.30;99.90;;;;;;5033140;28;20098;-51
2021/08/28 12:19:02;;;;;;;13.10;10.32;;;19.30;99.90;;;;;;5051954;28;20029;-50
2021/08/28 12:21:38;;;;;;;14.18;12.40;;;19.20;99.90;;;;;;5051774;28;20041;-49
2021/08/28 12:24:15;;;;;;;13.02;11.43;;;19.00;99.90;;;;;;5051846;28;20036;-49
2021/08/28 12:26:43;;;;;;;13.02;10.75;;;19.00;99.90;;;;;;5038943;28;20428;-51
2021/08/28 12:29:09;;;;;;;13.95;12.02;;;19.10;99.90;;;;;;5031958;28;20389;-51
2021/08/28 12:31:35;;;;;;;12.73;11.32;;;18.90;99.90;;;;;;5031879;28;20041;-50
2021/08/28 12:34:18;;;;;;;13.32;11.70;;;19.10;99.90;;;;;;5045903;28;20035;-51
2021/08/28 12:36:46;;;;;;;13.73;12.00;;;19.20;99.90;;;;;;5047663;28;20044;-50
2021/08/28 12:39:13;;;;;;;18.58;14.05;;;19.40;99.90;;;;;;5002098;28;20041;-49
2021/08/28 12:41:39;;;;;;;17.10;12.98;;;19.30;99.90;;;;;;5054936;28;20083;-48